Time;durP1;ratioP1;P1;durP2;ratioP2;P2;SDS_P1;SDS_P2;PMS_P1;PMS_P2;Temp;Humidity;BMP_temperature;BMP_pressure;BME280_temperature;BME280_humidity;BME280_pressure;Samples;Min_cycle;Max_cycle;Signal;HPM_P1;HPM_P2
2022/04/30 00:01:49;;;;;;;15.15;7.38;;;9.90;99.90;;;;;;5048691;28;20385;-85
2022/04/30 00:04:14;;;;;;;17.45;7.88;;;9.90;99.90;;;;;;5072992;28;20024;-85
2022/04/30 00:06:42;;;;;;;18.95;8.02;;;9.90;99.90;;;;;;5073098;28;20032;-85
2022/04/30 00:09:36;;;;;;;13.80;7.30;;;9.80;99.90;;;;;;5073183;28;20377;-84
2022/04/30 00:12:02;;;;;;;16.88;7.25;;;9.80;99.90;;;;;;5064867;28;20029;-85
2022/04/30 00:14:29;;;;;;;12.98;7.95;;;9.70;99.90;;;;;;5040517;28;20041;-85
2022/04/30 00:17:13;;;;;;;21.50;8.57;;;9.70;99.90;;;;;;5022581;28;20026;-85
2022/04/30 00:19:39;;;;;;;18.15;8.05;;;9.70;99.90;;;;;;5044750;28;20044;-86
2022/04/30 00:22:05;;;;;;;12.48;7.47;;;9.70;99.90;;;;;;5045345;28;20026;-85
2022/04/30 00:24:38;;;;;;;15.52;7.60;;;9.60;99.90;;;;;;5030643;28;20131;-85
2022/04/30 00:27:04;;;;;;;20.40;7.60;;;9.60;99.90;;;;;;5052897;28;20416;-85
2022/04/30 00:29:40;;;;;;;11.80;6.32;;;9.60;99.90;;;;;;5052732;28;20461;-84
2022/04/30 00:32:06;;;;;;;16.83;7.88;;;9.50;99.90;;;;;;5028258;28;20025;-84
2022/04/30 00:34:33;;;;;;;12.38;7.53;;;9.50;99.90;;;;;;5049511;28;20032;-84
2022/04/30 00:37:02;;;;;;;15.63;7.38;;;9.40;99.90;;;;;;5052315;28;20096;-84
2022/04/30 00:39:32;;;;;;;22.30;8.00;;;9.40;99.90;;;;;;5044183;28;20477;-84
2022/04/30 00:41:57;;;;;;;17.33;7.57;;;9.40;99.90;;;;;;5034966;28;20025;-84
2022/04/30 00:44:25;;;;;;;20.00;8.95;;;9.30;99.90;;;;;;5048914;28;20056;-84
2022/04/30 00:46:51;;;;;;;22.63;9.30;;;9.30;99.90;;;;;;5051486;28;20029;-85
2022/04/30 00:49:20;;;;;;;13.48;7.68;;;9.20;99.90;;;;;;5048130;28;20036;-84
2022/04/30 00:51:45;;;;;;;21.67;8.05;;;9.20;99.90;;;;;;5051204;28;20628;-84
2022/04/30 00:54:12;;;;;;;14.65;7.85;;;9.20;99.90;;;;;;5051327;28;20067;-85
2022/04/30 00:56:43;;;;;;;16.90;8.38;;;9.20;99.90;;;;;;5051641;28;20108;-85
2022/04/30 00:59:12;;;;;;;16.88;8.50;;;9.20;99.90;;;;;;5052400;28;20028;-85
2022/04/30 01:01:38;;;;;;;15.63;8.93;;;9.10;99.90;;;;;;5043438;28;20132;-85
2022/04/30 01:04:07;;;;;;;23.05;8.40;;;9.10;99.90;;;;;;5051348;28;20025;-84
2022/04/30 01:07:02;;;;;;;24.40;9.05;;;9.10;99.90;;;;;;5048662;28;20032;-84
2022/04/30 01:09:29;;;;;;;26.83;8.65;;;9.10;99.90;;;;;;5050753;28;20032;-84
2022/04/30 01:11:59;;;;;;;20.67;8.77;;;9.10;99.90;;;;;;5046944;28;20412;-85
2022/04/30 01:14:31;;;;;;;19.27;9.38;;;9.00;99.90;;;;;;5046857;28;20037;-85
2022/04/30 01:17:02;;;;;;;18.55;9.75;;;9.00;99.90;;;;;;5031106;28;20033;-85
2022/04/30 01:19:28;;;;;;;22.83;10.07;;;9.00;99.90;;;;;;5034310;28;20483;-84
2022/04/30 01:21:58;;;;;;;27.98;10.20;;;8.90;99.90;;;;;;5039872;28;20056;-85
2022/04/30 01:24:28;;;;;;;17.50;10.38;;;8.90;99.90;;;;;;5032311;28;20045;-84
2022/04/30 01:26:55;;;;;;;23.10;11.15;;;8.80;99.90;;;;;;5032637;28;20065;-85
2022/04/30 01:29:23;;;;;;;23.63;11.00;;;8.80;99.90;;;;;;5049559;28;20009;-84
2022/04/30 01:37:35;;;;;;;18.52;11.05;;;8.80;99.90;;;;;;5045299;28;20032;-85
2022/04/30 01:40:07;;;;;;;24.75;10.55;;;8.80;99.90;;;;;;5050125;28;20048;-85
2022/04/30 01:42:42;;;;;;;15.93;10.35;;;8.70;99.90;;;;;;5033203;28;20045;-85
2022/04/30 01:45:21;;;;;;;31.27;10.90;;;8.70;99.90;;;;;;5051198;28;20048;-84
2022/04/30 01:47:47;;;;;;;17.73;10.77;;;8.70;99.90;;;;;;5025175;28;20029;-84
2022/04/30 01:50:13;;;;;;;28.25;12.70;;;8.70;99.90;;;;;;5074955;28;20020;-85
2022/04/30 01:52:39;;;;;;;23.88;11.80;;;8.60;99.90;;;;;;5073182;28;20035;-85
2022/04/30 01:55:05;;;;;;;27.05;11.45;;;8.70;99.90;;;;;;5070899;28;20051;-85
2022/04/30 01:57:31;;;;;;;23.08;11.63;;;8.60;99.90;;;;;;5076150;28;20021;-85
2022/04/30 02:00:28;;;;;;;21.17;11.23;;;8.50;99.90;;;;;;5075043;28;20031;-85
2022/04/30 02:02:55;;;;;;;23.30;11.48;;;8.50;99.90;;;;;;5075818;28;20036;-85
2022/04/30 02:05:26;;;;;;;25.92;12.20;;;8.50;99.90;;;;;;5067977;28;20036;-85
2022/04/30 02:08:03;;;;;;;24.02;10.68;;;8.50;99.90;;;;;;5062105;28;20024;-85
2022/04/30 02:10:40;;;;;;;27.80;12.55;;;8.50;99.90;;;;;;5057154;28;20024;-85
2022/04/30 02:13:07;;;;;;;21.88;11.98;;;8.50;99.90;;;;;;5074599;28;20379;-85
2022/04/30 02:15:57;;;;;;;29.95;12.27;;;8.50;99.90;;;;;;5069728;28;20036;-85
2022/04/30 02:18:24;;;;;;;24.90;12.30;;;8.50;99.90;;;;;;5067767;28;20032;-84
2022/04/30 02:20:58;;;;;;;31.55;12.15;;;8.50;99.90;;;;;;5057470;28;20539;-84
2022/04/30 02:23:24;;;;;;;27.80;12.50;;;8.40;99.90;;;;;;5064952;28;20299;-85
2022/04/30 02:25:51;;;;;;;22.63;12.23;;;8.40;99.90;;;;;;5073846;28;20028;-84
2022/04/30 02:28:17;;;;;;;25.08;11.80;;;8.30;99.90;;;;;;5075487;28;20089;-85
2022/04/30 02:30:43;;;;;;;23.85;12.63;;;8.30;99.90;;;;;;5074666;28;20480;-85
2022/04/30 02:33:21;;;;;;;21.42;12.52;;;8.30;99.90;;;;;;5074819;28;20021;-85
2022/04/30 02:35:47;;;;;;;26.52;12.65;;;8.30;99.90;;;;;;5070056;28;20062;-85
2022/04/30 02:38:13;;;;;;;25.45;12.23;;;8.30;99.90;;;;;;5065267;28;20099;-85
2022/04/30 02:40:49;;;;;;;26.88;12.32;;;8.20;99.90;;;;;;5057386;28;20105;-85
2022/04/30 02:43:19;;;;;;;23.17;10.98;;;8.20;99.90;;;;;;5075026;28;20051;-86
2022/04/30 02:45:57;;;;;;;27.95;12.75;;;8.20;99.90;;;;;;5074673;28;20566;-84
2022/04/30 02:48:22;;;;;;;20.42;12.45;;;8.20;99.90;;;;;;5074933;28;20507;-84
2022/04/30 02:50:48;;;;;;;20.63;11.70;;;8.30;99.90;;;;;;5074118;28;20017;-84
2022/04/30 02:53:18;;;;;;;23.40;12.13;;;8.30;99.90;;;;;;5069922;28;20033;-85
2022/04/30 02:55:44;;;;;;;23.13;13.52;;;8.20;99.90;;;;;;5074324;28;20028;-85
2022/04/30 03:01:36;;;;;;;23.15;12.35;;;8.20;99.90;;;;;;5074834;28;20024;-85
2022/04/30 03:04:05;;;;;;;40.35;12.82;;;8.10;99.90;;;;;;5074669;28;20366;-85
2022/04/30 03:06:36;;;;;;;29.30;12.90;;;8.10;99.90;;;;;;5073615;28;20021;-85
2022/04/30 03:09:22;;;;;;;25.95;12.48;;;8.10;99.90;;;;;;5073854;28;20380;-84
2022/04/30 03:11:48;;;;;;;24.40;13.23;;;8.10;99.90;;;;;;5074080;28;20019;-85
2022/04/30 03:14:17;;;;;;;28.17;12.75;;;8.10;99.90;;;;;;5063741;28;20041;-85
2022/04/30 03:22:14;;;;;;;29.40;13.30;;;8.00;99.90;;;;;;5048920;28;20024;-85
2022/04/30 03:24:40;;;;;;;29.92;15.30;;;7.90;99.90;;;;;;5053026;28;20033;-85
2022/04/30 03:27:07;;;;;;;29.27;14.15;;;7.90;99.90;;;;;;5053588;28;20100;-84
2022/04/30 03:29:33;;;;;;;28.27;14.23;;;7.90;99.90;;;;;;5053972;28;20021;-84
2022/04/30 03:31:58;;;;;;;36.10;14.13;;;7.90;99.90;;;;;;5053190;28;20028;-84
2022/04/30 03:34:28;;;;;;;24.88;13.68;;;7.90;99.90;;;;;;5054107;28;20028;-85
2022/04/30 03:36:53;;;;;;;29.75;14.13;;;7.90;99.90;;;;;;5040212;28;20025;-85
2022/04/30 03:39:19;;;;;;;29.17;13.38;;;7.90;99.90;;;;;;5053779;28;20496;-85
2022/04/30 03:41:48;;;;;;;27.45;13.77;;;7.90;99.90;;;;;;5038040;28;20100;-84
2022/04/30 03:44:13;;;;;;;26.38;13.70;;;7.90;99.90;;;;;;5037937;28;20104;-85
2022/04/30 03:46:44;;;;;;;27.70;13.32;;;7.80;99.90;;;;;;5036097;28;20103;-84
2022/04/30 03:49:09;;;;;;;32.58;14.30;;;7.80;99.90;;;;;;5053850;28;20539;-84
2022/04/30 03:51:40;;;;;;;35.10;13.85;;;7.80;99.90;;;;;;5036586;28;20017;-84
2022/04/30 03:54:06;;;;;;;28.13;13.27;;;7.80;99.90;;;;;;5053448;28;20025;-83
2022/04/30 03:56:34;;;;;;;35.65;14.05;;;7.80;99.90;;;;;;5031291;28;20025;-83
2022/04/30 03:59:01;;;;;;;30.83;14.45;;;7.80;99.90;;;;;;5049181;28;20033;-83
2022/04/30 04:01:42;;;;;;;23.92;12.93;;;7.70;99.90;;;;;;5044733;28;20411;-84
2022/04/30 04:04:08;;;;;;;40.28;15.63;;;7.70;99.90;;;;;;5021809;28;20025;-84
2022/04/30 04:06:35;;;;;;;27.38;13.30;;;7.70;99.90;;;;;;5047081;28;20041;-83
2022/04/30 04:09:00;;;;;;;26.35;13.82;;;7.70;99.90;;;;;;5049602;28;20473;-82
2022/04/30 04:11:27;;;;;;;25.30;14.20;;;7.70;99.90;;;;;;5043789;28;20052;-83
2022/04/30 04:19:26;;;;;;;23.05;13.48;;;7.70;99.90;;;;;;5049566;28;20122;-83
2022/04/30 04:21:53;;;;;;;30.83;14.55;;;7.70;99.90;;;;;;5042761;28;20494;-83
2022/04/30 04:27:04;;;;;;;32.67;14.48;;;7.70;99.90;;;;;;5052144;28;20090;-84
2022/04/30 04:29:29;;;;;;;31.67;15.15;;;7.70;99.90;;;;;;5052629;28;20032;-83
2022/04/30 04:31:57;;;;;;;32.38;15.70;;;7.60;99.90;;;;;;5035236;28;20469;-84
2022/04/30 04:34:23;;;;;;;31.05;14.20;;;7.60;99.90;;;;;;5032513;28;20375;-83
2022/04/30 04:36:51;;;;;;;27.17;14.20;;;7.60;99.90;;;;;;5050441;28;20028;-83
2022/04/30 04:39:16;;;;;;;30.05;14.20;;;7.70;99.90;;;;;;5040495;28;20075;-83
2022/04/30 04:41:45;;;;;;;35.22;16.30;;;7.60;99.90;;;;;;5047673;28;20373;-83
2022/04/30 04:44:11;;;;;;;29.58;14.32;;;7.60;99.90;;;;;;5050959;28;20027;-84
2022/04/30 04:46:50;;;;;;;26.27;14.23;;;7.60;99.90;;;;;;5028734;28;20022;-83
2022/04/30 04:49:15;;;;;;;29.73;14.68;;;7.60;99.90;;;;;;5039228;28;20025;-84
2022/04/30 04:51:55;;;;;;;24.48;12.73;;;7.60;99.90;;;;;;5047445;28;20433;-83
2022/04/30 04:54:21;;;;;;;30.80;15.18;;;7.60;99.90;;;;;;5024493;28;20037;-83
2022/04/30 04:56:50;;;;;;;31.92;13.77;;;7.60;99.90;;;;;;5018549;28;20021;-84
2022/04/30 04:59:16;;;;;;;32.00;14.77;;;7.60;99.90;;;;;;5048504;28;20029;-83
2022/04/30 05:01:43;;;;;;;29.35;14.57;;;7.60;99.90;;;;;;5035643;28;20025;-83
2022/04/30 05:04:09;;;;;;;32.60;13.93;;;7.60;99.90;;;;;;5032059;28;20029;-83
2022/04/30 05:06:35;;;;;;;45.47;16.35;;;7.60;99.90;;;;;;5033451;28;20432;-84
2022/04/30 05:09:01;;;;;;;32.10;14.52;;;7.60;99.90;;;;;;5049303;28;20108;-83
2022/04/30 05:11:27;;;;;;;24.48;12.85;;;7.60;99.90;;;;;;5034791;28;20385;-83
2022/04/30 05:13:56;;;;;;;30.00;15.23;;;7.60;99.90;;;;;;5046488;28;20031;-83
2022/04/30 05:16:21;;;;;;;27.27;15.10;;;7.60;99.90;;;;;;5032064;28;20124;-84
2022/04/30 05:18:47;;;;;;;34.63;14.32;;;7.60;99.90;;;;;;5016389;28;20156;-83
2022/04/30 05:21:14;;;;;;;61.78;16.05;;;7.60;99.90;;;;;;5028664;28;20029;-83
2022/04/30 05:23:40;;;;;;;26.80;13.88;;;7.60;99.90;;;;;;5032377;28;20033;-83
2022/04/30 05:26:13;;;;;;;31.75;13.90;;;7.70;99.90;;;;;;5032270;28;20453;-82
2022/04/30 05:28:38;;;;;;;30.70;13.35;;;7.70;99.90;;;;;;5031328;28;20033;-82
2022/04/30 05:31:07;;;;;;;25.90;14.05;;;7.80;99.90;;;;;;5025914;28;20026;-82
2022/04/30 05:33:35;;;;;;;29.40;14.00;;;7.80;99.90;;;;;;5028910;28;20489;-83
2022/04/30 05:36:01;;;;;;;28.85;13.65;;;7.80;99.90;;;;;;5027318;28;20037;-82
2022/04/30 05:38:27;;;;;;;24.65;13.45;;;7.80;99.90;;;;;;5033605;28;20041;-83
2022/04/30 05:40:53;;;;;;;24.13;13.93;;;7.80;99.90;;;;;;5018981;28;20025;-82
2022/04/30 05:43:28;;;;;;;31.70;13.07;;;7.80;99.90;;;;;;5034330;28;20067;-82
2022/04/30 05:45:53;;;;;;;36.50;14.13;;;7.80;99.90;;;;;;5033354;28;20048;-82
2022/04/30 05:48:25;;;;;;;30.13;14.20;;;7.80;99.90;;;;;;5031847;28;20029;-83
2022/04/30 05:50:51;;;;;;;33.67;14.65;;;7.90;99.90;;;;;;5031160;28;20041;-83
2022/04/30 05:53:23;;;;;;;26.00;12.57;;;7.80;99.90;;;;;;5033160;28;20465;-83
2022/04/30 05:55:49;;;;;;;28.75;13.90;;;7.90;99.90;;;;;;5033942;28;20075;-82
2022/04/30 05:58:15;;;;;;;27.75;13.27;;;7.90;99.90;;;;;;5034051;28;20029;-83
2022/04/30 06:00:40;;;;;;;25.35;13.23;;;8.00;99.90;;;;;;5025127;28;20389;-82
2022/04/30 06:03:06;;;;;;;25.85;13.32;;;8.00;99.90;;;;;;5033247;28;20483;-82
2022/04/30 06:05:32;;;;;;;25.88;13.10;;;8.00;99.90;;;;;;5015858;28;20057;-82
2022/04/30 06:08:00;;;;;;;21.33;12.43;;;8.10;99.90;;;;;;5023557;28;20500;-82
2022/04/30 06:10:26;;;;;;;30.48;13.80;;;8.20;99.90;;;;;;5032233;28;20018;-84
2022/04/30 06:12:52;;;;;;;28.30;12.77;;;8.10;99.90;;;;;;5031492;28;20122;-84
2022/04/30 06:15:17;;;;;;;25.55;12.88;;;8.20;99.90;;;;;;5046714;28;20037;-83
2022/04/30 06:17:53;;;;;;;19.90;11.68;;;8.20;99.90;;;;;;5050070;28;20504;-84
2022/04/30 06:20:19;;;;;;;34.20;12.15;;;8.20;99.90;;;;;;5030147;28;20029;-83
2022/04/30 06:22:52;;;;;;;31.65;12.27;;;8.20;99.90;;;;;;5052049;28;20044;-84
2022/04/30 06:25:17;;;;;;;24.95;12.35;;;8.20;99.90;;;;;;5036645;28;20021;-84
2022/04/30 06:27:44;;;;;;;25.30;12.15;;;8.10;99.90;;;;;;5054387;28;20550;-84
2022/04/30 06:30:11;;;;;;;26.50;11.63;;;8.20;99.90;;;;;;5047035;28;20076;-85
2022/04/30 06:32:38;;;;;;;22.98;10.63;;;8.20;99.90;;;;;;5017035;28;20082;-84
2022/04/30 06:35:04;;;;;;;34.47;11.23;;;8.30;99.90;;;;;;5053751;28;20039;-84
2022/04/30 06:37:38;;;;;;;32.60;11.02;;;8.30;99.90;;;;;;5053609;28;20556;-84
2022/04/30 06:40:05;;;;;;;26.40;10.20;;;8.30;99.90;;;;;;5032011;28;20038;-84
2022/04/30 06:42:41;;;;;;;19.80;10.93;;;8.30;99.90;;;;;;5064993;28;20021;-84
2022/04/30 06:45:08;;;;;;;23.23;10.57;;;8.30;99.90;;;;;;5075054;28;20047;-84
2022/04/30 06:47:45;;;;;;;23.77;11.23;;;8.30;99.90;;;;;;5075133;28;20104;-84
2022/04/30 06:50:11;;;;;;;29.08;11.60;;;8.30;99.90;;;;;;5074716;28;20021;-84
2022/04/30 06:57:07;;;;;;;25.77;11.95;;;8.30;99.90;;;;;;5074922;28;20074;-84
2022/04/30 06:58:08;;;;;;;25.55;10.90;;;8.50;99.90;;;;;;5074829;28;20484;-83
2022/04/30 07:03:22;;;;;;;23.65;10.10;;;8.50;99.90;;;;;;5074770;28;20435;-84
2022/04/30 07:05:49;;;;;;;19.75;10.50;;;8.60;99.90;;;;;;5074436;28;20066;-84
2022/04/30 07:08:17;;;;;;;20.83;10.27;;;8.60;99.90;;;;;;5074862;28;20402;-84
2022/04/30 07:10:43;;;;;;;20.52;10.90;;;8.60;99.90;;;;;;5074689;28;20097;-84
2022/04/30 07:13:09;;;;;;;22.63;10.57;;;8.70;99.90;;;;;;5074393;28;20036;-84
2022/04/30 07:15:43;;;;;;;24.88;12.15;;;8.70;99.90;;;;;;5074502;28;20446;-84
2022/04/30 07:18:09;;;;;;;22.77;10.60;;;8.80;99.90;;;;;;5073195;28;20115;-83
2022/04/30 07:21:16;;;;;;;23.45;10.98;;;8.80;99.90;;;;;;5056194;28;20111;-84
2022/04/30 07:23:41;;;;;;;21.42;11.13;;;8.90;99.90;;;;;;5074275;28;20020;-83
2022/04/30 07:26:09;;;;;;;17.48;10.65;;;8.90;99.90;;;;;;5074264;28;20025;-84
2022/04/30 07:28:35;;;;;;;26.88;10.70;;;9.00;99.90;;;;;;5074311;28;20044;-84
2022/04/30 07:31:06;;;;;;;21.15;11.20;;;9.10;99.90;;;;;;5074299;28;20020;-84
2022/04/30 07:33:31;;;;;;;26.50;9.45;;;9.20;99.90;;;;;;5074280;28;20020;-84
2022/04/30 07:36:05;;;;;;;20.25;10.25;;;9.20;99.90;;;;;;5073840;28;20523;-84
2022/04/30 07:39:02;;;;;;;22.88;10.52;;;9.20;99.90;;;;;;5056633;28;20024;-84
2022/04/30 07:41:28;;;;;;;21.30;10.38;;;9.30;99.90;;;;;;5073950;28;20082;-84
2022/04/30 07:44:02;;;;;;;25.20;9.95;;;9.40;99.90;;;;;;5073650;28;20431;-85
2022/04/30 07:46:28;;;;;;;24.40;9.98;;;9.30;99.90;;;;;;5072635;28;20052;-84
2022/04/30 07:49:03;;;;;;;20.42;9.30;;;9.30;99.90;;;;;;5073897;28;20421;-85
2022/04/30 07:51:34;;;;;;;18.58;9.80;;;9.20;99.90;;;;;;5072164;28;20063;-84
2022/04/30 07:54:05;;;;;;;28.10;9.45;;;9.30;99.90;;;;;;5073861;28;20025;-85
2022/04/30 07:56:31;;;;;;;35.20;9.93;;;9.40;99.90;;;;;;5072402;28;20078;-84
2022/04/30 07:59:25;;;;;;;25.48;9.35;;;9.40;99.90;;;;;;5073643;28;20025;-84
2022/04/30 08:01:51;;;;;;;27.90;9.10;;;9.40;99.90;;;;;;5073642;28;20028;-83
2022/04/30 08:04:21;;;;;;;19.55;9.70;;;9.40;99.90;;;;;;5055469;28;20039;-84
2022/04/30 08:06:46;;;;;;;24.42;9.60;;;9.50;99.90;;;;;;5073165;28;20495;-84
2022/04/30 08:09:18;;;;;;;19.17;9.32;;;9.50;99.90;;;;;;5073526;28;20025;-85
2022/04/30 08:11:44;;;;;;;26.92;9.73;;;9.60;99.90;;;;;;5072215;28;20025;-85
2022/04/30 08:14:09;;;;;;;18.85;9.10;;;9.60;99.90;;;;;;5070556;28;20029;-85
2022/04/30 08:16:35;;;;;;;22.48;9.52;;;9.70;99.90;;;;;;5035204;28;20515;-84
2022/04/30 08:19:02;;;;;;;19.25;8.93;;;9.80;99.90;;;;;;5053262;28;20036;-84
2022/04/30 08:21:28;;;;;;;17.45;8.95;;;9.80;99.90;;;;;;5052545;28;20032;-84
2022/04/30 08:23:54;;;;;;;15.35;9.18;;;9.70;99.90;;;;;;5052967;28;20102;-84
2022/04/30 08:26:20;;;;;;;20.85;9.90;;;9.80;99.90;;;;;;5053238;28;20104;-84
2022/04/30 08:28:46;;;;;;;28.35;9.65;;;10.00;99.90;;;;;;5053105;28;20479;-84
2022/04/30 08:31:11;;;;;;;18.27;8.35;;;9.90;99.90;;;;;;5035084;28;20044;-84
2022/04/30 08:33:42;;;;;;;22.67;8.98;;;10.00;99.90;;;;;;5051898;28;20055;-84
2022/04/30 08:36:07;;;;;;;22.83;9.43;;;10.00;99.90;;;;;;5052551;28;20025;-84
2022/04/30 08:38:34;;;;;;;22.30;9.25;;;10.10;99.90;;;;;;5053279;28;20032;-84
2022/04/30 08:40:59;;;;;;;17.65;8.45;;;10.10;99.90;;;;;;5035081;28;20477;-84
2022/04/30 08:43:34;;;;;;;16.70;8.75;;;10.10;99.90;;;;;;5052634;28;20040;-84
2022/04/30 08:46:01;;;;;;;28.65;9.25;;;10.20;99.90;;;;;;5034952;28;20472;-85
2022/04/30 08:48:30;;;;;;;27.55;9.25;;;10.30;99.90;;;;;;5035006;28;20112;-84
2022/04/30 08:50:57;;;;;;;24.55;8.45;;;10.40;99.90;;;;;;5052454;28;20017;-86
2022/04/30 08:53:23;;;;;;;17.10;8.05;;;10.40;99.90;;;;;;5052622;28;20528;-84
2022/04/30 08:55:49;;;;;;;29.02;9.50;;;10.40;99.90;;;;;;5034269;28;20025;-84
2022/04/30 08:58:16;;;;;;;29.02;10.10;;;10.50;99.90;;;;;;5052688;28;20433;-85
2022/04/30 09:00:44;;;;;;;21.90;9.00;;;10.50;99.90;;;;;;5052674;28;20029;-85
2022/04/30 09:03:17;;;;;;;18.05;8.98;;;10.60;99.90;;;;;;5052627;28;20049;-85
2022/04/30 09:05:43;;;;;;;18.15;7.55;;;10.70;99.90;;;;;;5052175;28;20044;-86
2022/04/30 09:08:20;;;;;;;21.13;9.27;;;10.70;99.90;;;;;;5052441;28;20017;-85
2022/04/30 09:10:47;;;;;;;20.58;8.85;;;10.80;99.90;;;;;;5034411;28;20481;-85
2022/04/30 09:13:21;;;;;;;20.50;9.55;;;10.90;99.90;;;;;;5052746;28;20017;-84
2022/04/30 09:15:54;;;;;;;17.38;8.60;;;10.90;99.90;;;;;;5052301;28;20045;-85
2022/04/30 09:18:19;;;;;;;19.88;8.63;;;11.00;99.90;;;;;;5052464;28;20492;-85
2022/04/30 09:20:51;;;;;;;18.92;9.30;;;11.10;99.90;;;;;;5034327;28;20115;-85
2022/04/30 09:23:29;;;;;;;16.70;8.85;;;11.10;99.90;;;;;;5052307;28;20040;-85
2022/04/30 09:26:03;;;;;;;18.85;8.85;;;11.20;99.90;;;;;;5052443;28;20021;-85
2022/04/30 09:28:32;;;;;;;18.70;8.97;;;11.30;99.90;;;;;;5052368;28;20028;-86
2022/04/30 09:31:11;;;;;;;22.58;8.27;;;11.30;99.90;;;;;;5052299;28;20017;-87
2022/04/30 09:33:39;;;;;;;15.88;8.45;;;11.40;99.90;;;;;;5051961;28;20388;-85
2022/04/30 09:39:19;;;;;;;21.30;8.73;;;11.50;99.90;;;;;;5052408;28;20540;-86
2022/04/30 09:41:46;;;;;;;27.27;9.02;;;11.60;99.90;;;;;;5052383;28;20028;-83
2022/04/30 09:44:17;;;;;;;16.45;8.55;;;11.80;99.90;;;;;;5052073;28;20021;-85
2022/04/30 09:46:43;;;;;;;13.70;9.27;;;11.80;99.90;;;;;;5034760;28;20477;-87
2022/04/30 09:54:43;;;;;;;20.08;9.70;;;11.90;99.90;;;;;;5052056;28;20079;-84
2022/04/30 09:57:09;;;;;;;18.85;9.07;;;12.00;99.90;;;;;;5051991;28;20445;-84
2022/04/30 09:59:38;;;;;;;15.98;8.07;;;12.10;99.90;;;;;;5052007;28;20052;-85
2022/04/30 10:02:06;;;;;;;21.77;9.20;;;12.20;99.90;;;;;;5051945;28;20036;-84
2022/04/30 10:04:37;;;;;;;24.77;10.25;;;12.30;99.90;;;;;;5051968;28;20109;-85
2022/04/30 10:07:04;;;;;;;20.23;8.82;;;12.30;99.90;;;;;;5052008;28;20083;-85
2022/04/30 10:09:46;;;;;;;18.80;8.90;;;12.30;99.90;;;;;;5055095;28;20032;-89
2022/04/30 10:12:57;;;;;;;16.92;9.15;;;12.30;99.90;;;;;;5054402;28;20053;-84
2022/04/30 10:15:51;;;;;;;25.52;8.88;;;12.30;99.90;;;;;;5055530;28;20047;-85
2022/04/30 10:18:18;;;;;;;17.55;9.13;;;12.50;99.90;;;;;;5037740;28;20086;-85
2022/04/30 10:20:56;;;;;;;18.25;9.00;;;12.50;99.90;;;;;;5055211;28;20383;-85
2022/04/30 10:23:22;;;;;;;15.02;9.88;;;12.50;99.90;;;;;;5055335;28;20021;-85
2022/04/30 10:25:50;;;;;;;22.77;9.65;;;12.50;99.90;;;;;;5055342;28;20021;-85
2022/04/30 10:28:17;;;;;;;18.67;8.75;;;12.60;99.90;;;;;;5055450;28;20103;-86
2022/04/30 10:31:10;;;;;;;22.08;9.93;;;12.60;99.90;;;;;;5055308;28;20091;-86
2022/04/30 10:33:49;;;;;;;24.55;10.52;;;12.70;99.90;;;;;;5055166;28;20025;-85
2022/04/30 10:36:15;;;;;;;24.17;9.65;;;12.80;99.90;;;;;;5053785;28;20544;-85
2022/04/30 10:39:04;;;;;;;17.30;9.63;;;12.80;99.90;;;;;;5055203;28;20059;-85
2022/04/30 10:41:54;;;;;;;25.00;11.45;;;12.80;99.90;;;;;;5054911;28;20025;-84
2022/04/30 10:44:32;;;;;;;25.33;11.48;;;12.90;99.90;;;;;;5037216;28;20036;-85
2022/04/30 10:47:18;;;;;;;16.95;8.57;;;12.90;99.90;;;;;;5055016;28;20547;-89
2022/04/30 10:49:43;;;;;;;21.80;9.55;;;12.90;99.90;;;;;;5054698;28;20021;-85
2022/04/30 10:52:25;;;;;;;16.60;9.82;;;12.90;99.90;;;;;;5054727;28;20036;-84
2022/04/30 10:54:53;;;;;;;19.77;11.02;;;12.90;99.90;;;;;;5055091;28;20029;-85
2022/04/30 10:57:21;;;;;;;18.73;9.85;;;13.00;99.90;;;;;;5054753;28;20417;-85
2022/04/30 10:59:58;;;;;;;16.60;8.80;;;13.00;99.90;;;;;;5036825;28;20035;-90
2022/04/30 11:02:37;;;;;;;22.33;10.32;;;13.10;99.90;;;;;;5054694;28;20028;-85
2022/04/30 11:05:03;;;;;;;25.95;10.70;;;13.10;99.90;;;;;;5054392;28;20052;-86
2022/04/30 11:07:31;;;;;;;24.15;10.02;;;13.20;99.90;;;;;;5036620;28;20056;-85
2022/04/30 11:09:57;;;;;;;17.25;10.85;;;13.20;99.90;;;;;;5054688;28;20067;-86
2022/04/30 11:12:34;;;;;;;22.48;10.40;;;13.40;99.90;;;;;;5054570;28;20104;-86
2022/04/30 11:15:08;;;;;;;14.95;8.55;;;13.40;99.90;;;;;;5054472;28;20044;-85
2022/04/30 11:17:45;;;;;;;23.02;10.00;;;13.40;99.90;;;;;;5036458;28;20037;-85
2022/04/30 11:20:24;;;;;;;18.75;10.93;;;13.50;99.90;;;;;;5053791;28;20032;-86
2022/04/30 11:22:54;;;;;;;19.38;8.45;;;13.70;99.90;;;;;;5036348;28;20497;-85
2022/04/30 11:25:22;;;;;;;17.63;9.45;;;13.60;99.90;;;;;;5054235;28;20025;-85
2022/04/30 11:27:47;;;;;;;20.13;8.82;;;13.70;99.90;;;;;;5054216;28;20028;-85
2022/04/30 11:30:20;;;;;;;20.20;9.85;;;13.80;99.90;;;;;;5054197;28;20025;-86
2022/04/30 11:32:48;;;;;;;17.00;10.00;;;13.80;99.90;;;;;;5054095;28;20028;-88
2022/04/30 11:35:17;;;;;;;20.92;9.07;;;13.70;99.90;;;;;;5053775;28;20032;-85
2022/04/30 11:37:43;;;;;;;16.95;9.18;;;13.70;99.90;;;;;;5054103;28;20192;-86
2022/04/30 11:40:24;;;;;;;22.95;10.45;;;13.80;99.90;;;;;;5053842;28;20044;-85
2022/04/30 11:43:01;;;;;;;18.20;10.57;;;13.80;99.90;;;;;;5053880;28;20025;-86
2022/04/30 11:46:00;;;;;;;20.35;9.70;;;13.90;99.90;;;;;;5053806;28;20045;-85
2022/04/30 11:48:27;;;;;;;12.07;7.93;;;13.80;99.90;;;;;;5053931;28;20028;-84
2022/04/30 11:50:54;;;;;;;18.08;10.15;;;13.80;99.90;;;;;;5053469;28;20067;-85
2022/04/30 11:53:20;;;;;;;23.60;10.60;;;13.90;99.90;;;;;;5035884;28;20061;-84
2022/04/30 11:55:47;;;;;;;18.92;9.43;;;14.10;99.90;;;;;;5053753;28;20032;-85
2022/04/30 11:58:13;;;;;;;20.10;10.32;;;14.10;99.90;;;;;;5053678;28;20107;-85
2022/04/30 12:00:51;;;;;;;23.42;10.07;;;14.20;99.90;;;;;;5053719;28;20104;-87
2022/04/30 12:03:28;;;;;;;15.75;8.57;;;14.30;99.90;;;;;;5053507;28;20021;-85
2022/04/30 12:05:55;;;;;;;18.75;9.15;;;14.30;99.90;;;;;;5051935;28;20024;-85
2022/04/30 12:08:27;;;;;;;14.82;9.20;;;14.30;99.90;;;;;;5053504;28;20021;-85
2022/04/30 12:10:57;;;;;;;28.17;10.10;;;14.40;99.90;;;;;;5053450;28;20021;-84
2022/04/30 12:13:28;;;;;;;16.52;8.85;;;14.70;99.90;;;;;;5053407;28;20021;-85
2022/04/30 12:16:07;;;;;;;13.88;8.73;;;14.80;99.90;;;;;;5053233;28;20492;-85
2022/04/30 12:27:23;;;;;;;18.48;8.88;;;14.90;99.90;;;;;;5053555;28;20076;-84
2022/04/30 12:30:04;;;;;;;17.85;9.30;;;14.80;99.90;;;;;;5052518;28;20032;-85
2022/04/30 12:32:33;;;;;;;17.77;9.00;;;14.80;99.90;;;;;;5052081;28;20064;-85
2022/04/30 12:35:01;;;;;;;25.40;10.20;;;14.80;99.90;;;;;;5052780;28;20384;-84
2022/04/30 12:37:34;;;;;;;17.90;8.75;;;14.90;99.90;;;;;;5052520;28;20048;-84
2022/04/30 12:40:02;;;;;;;19.77;8.63;;;15.00;99.90;;;;;;5053048;28;20504;-85
2022/04/30 12:42:27;;;;;;;13.80;8.75;;;14.90;99.90;;;;;;5052695;28;20425;-86
2022/04/30 12:45:00;;;;;;;22.92;9.50;;;14.80;99.90;;;;;;5052803;28;20116;-85
2022/04/30 12:47:26;;;;;;;20.40;9.57;;;14.80;99.90;;;;;;5034865;28;20025;-84
2022/04/30 12:50:03;;;;;;;22.65;8.75;;;14.90;99.90;;;;;;5034748;28;20120;-85
2022/04/30 12:52:29;;;;;;;18.35;9.00;;;14.90;99.90;;;;;;5034529;28;20049;-85
2022/04/30 12:55:03;;;;;;;21.33;9.02;;;15.00;99.90;;;;;;5052720;28;20057;-85
2022/04/30 12:57:29;;;;;;;19.80;9.50;;;15.00;99.90;;;;;;5052563;28;20035;-84
2022/04/30 12:59:56;;;;;;;16.73;7.72;;;15.00;99.90;;;;;;5052687;28;20025;-86
2022/04/30 13:02:24;;;;;;;19.27;8.55;;;15.00;99.90;;;;;;5052521;28;20029;-85
2022/04/30 13:04:51;;;;;;;17.75;8.70;;;15.20;99.90;;;;;;5052185;28;20394;-87
2022/04/30 13:07:18;;;;;;;17.55;7.95;;;15.20;99.90;;;;;;5052498;28;20028;-86
2022/04/30 13:15:26;;;;;;;21.25;8.80;;;15.10;99.90;;;;;;5052034;28;20120;-84
2022/04/30 13:17:59;;;;;;;30.73;9.43;;;15.00;99.90;;;;;;5051411;28;20035;-85
2022/04/30 13:20:25;;;;;;;19.25;8.63;;;14.80;99.90;;;;;;5052085;28;20060;-84
2022/04/30 13:22:59;;;;;;;18.98;8.63;;;14.70;99.90;;;;;;5052359;28;20473;-85
2022/04/30 13:25:25;;;;;;;21.90;8.45;;;14.70;99.90;;;;;;5052303;28;20021;-86
2022/04/30 13:27:58;;;;;;;18.45;8.82;;;14.80;99.90;;;;;;5052315;28;20437;-85
2022/04/30 13:30:25;;;;;;;13.90;9.48;;;15.00;99.90;;;;;;5052355;28;20109;-85
2022/04/30 13:32:52;;;;;;;19.60;9.50;;;15.10;99.90;;;;;;5052309;28;20033;-85
2022/04/30 13:35:18;;;;;;;21.20;9.30;;;15.00;99.90;;;;;;5051863;28;20018;-84
2022/04/30 13:37:52;;;;;;;20.58;10.15;;;15.10;99.90;;;;;;5052193;28;20063;-85
2022/04/30 13:40:39;;;;;;;13.82;7.85;;;15.10;99.90;;;;;;5052239;28;20535;-88
2022/04/30 13:43:06;;;;;;;20.05;8.57;;;15.20;99.90;;;;;;5054609;28;20029;-86
2022/04/30 13:45:34;;;;;;;26.25;9.82;;;15.30;99.90;;;;;;5056233;28;20044;-84